Time;durP1;ratioP1;P1;durP2;ratioP2;P2;SDS_P1;SDS_P2;PMS_P1;PMS_P2;Temp;Humidity;BMP_temperature;BMP_pressure;BME280_temperature;BME280_humidity;BME280_pressure;Samples;Min_cycle;Max_cycle;Signal;HPM_P1;HPM_P2
2024/03/30 00:01:30;;;;;;;3.47;2.75;;;9.10;99.90;;;;;;5036792;28;20519;-66
2024/03/30 00:03:55;;;;;;;10.43;7.00;;;9.10;99.90;;;;;;5036043;28;20043;-66
2024/03/30 00:06:21;;;;;;;9.93;5.97;;;9.10;99.90;;;;;;5031443;28;20032;-66
2024/03/30 00:08:46;;;;;;;8.45;5.80;;;9.10;99.90;;;;;;5034287;28;20041;-66
2024/03/30 00:11:12;;;;;;;8.93;5.55;;;9.10;99.90;;;;;;5036681;28;20513;-65
2024/03/30 00:13:37;;;;;;;10.88;4.93;;;9.10;99.90;;;;;;5034040;28;20086;-66
2024/03/30 00:16:10;;;;;;;7.07;5.10;;;9.10;99.90;;;;;;5036953;28;20025;-66
2024/03/30 00:18:36;;;;;;;5.97;3.90;;;9.10;99.90;;;;;;5052933;28;20111;-66
2024/03/30 00:21:03;;;;;;;5.82;3.67;;;9.10;99.90;;;;;;5031919;28;20083;-66
2024/03/30 00:23:29;;;;;;;5.45;3.67;;;9.10;99.90;;;;;;5036737;28;20021;-66
2024/03/30 00:25:55;;;;;;;8.35;3.78;;;9.20;99.90;;;;;;5030614;28;20475;-64
2024/03/30 00:28:20;;;;;;;7.80;3.65;;;9.20;99.90;;;;;;5035191;28;20033;-66
2024/03/30 00:30:46;;;;;;;11.15;5.00;;;9.20;99.90;;;;;;5035903;28;20051;-66
2024/03/30 00:33:13;;;;;;;7.22;3.83;;;9.20;99.90;;;;;;5038460;28;20108;-66
2024/03/30 00:35:38;;;;;;;6.55;3.72;;;9.10;99.90;;;;;;5035692;28;20237;-66
2024/03/30 00:38:04;;;;;;;5.97;3.70;;;9.10;99.90;;;;;;5035084;28;20398;-66
2024/03/30 00:40:29;;;;;;;6.57;4.10;;;9.00;99.90;;;;;;5030158;28;20102;-66
2024/03/30 00:42:55;;;;;;;6.50;3.33;;;9.00;99.90;;;;;;5035763;28;20629;-65
2024/03/30 00:45:20;;;;;;;5.65;3.50;;;8.90;99.90;;;;;;5035494;28;20025;-66
2024/03/30 00:47:46;;;;;;;7.75;3.97;;;8.90;99.90;;;;;;5036391;28;20033;-66
2024/03/30 00:50:11;;;;;;;6.95;3.75;;;8.80;99.90;;;;;;5038007;28;20165;-66
2024/03/30 00:52:37;;;;;;;10.63;4.90;;;8.80;99.90;;;;;;5036172;28;20040;-66
2024/03/30 00:55:04;;;;;;;8.23;4.90;;;8.80;99.90;;;;;;5035240;28;20037;-66
2024/03/30 00:57:29;;;;;;;9.50;4.40;;;8.70;99.90;;;;;;5036400;28;20029;-66
2024/03/30 00:59:55;;;;;;;10.10;5.22;;;8.70;99.90;;;;;;5040030;28;20404;-64
2024/03/30 01:02:20;;;;;;;8.70;4.80;;;8.70;99.90;;;;;;5040134;28;20041;-66
2024/03/30 01:04:45;;;;;;;5.72;3.65;;;8.60;99.90;;;;;;5041381;28;20045;-66
2024/03/30 01:07:11;;;;;;;10.35;5.18;;;8.50;99.90;;;;;;5054960;28;20033;-66
2024/03/30 01:09:37;;;;;;;8.38;4.43;;;8.40;99.90;;;;;;5040012;28;20068;-66
2024/03/30 01:12:02;;;;;;;9.93;5.13;;;8.40;99.90;;;;;;5041885;28;20033;-67
2024/03/30 01:14:30;;;;;;;9.63;5.35;;;8.30;99.90;;;;;;5026952;28;20394;-67
2024/03/30 01:16:56;;;;;;;6.80;4.03;;;8.30;99.90;;;;;;5033647;28;20257;-66
2024/03/30 01:19:21;;;;;;;7.68;4.32;;;8.20;99.90;;;;;;5039766;28;20021;-66
2024/03/30 01:21:47;;;;;;;8.43;4.00;;;8.10;99.90;;;;;;5034049;28;20575;-66
2024/03/30 01:24:13;;;;;;;9.60;4.90;;;8.00;99.90;;;;;;5031019;28;20029;-66
2024/03/30 01:26:48;;;;;;;9.13;4.25;;;8.00;99.90;;;;;;5037598;28;20394;-66
2024/03/30 01:29:18;;;;;;;6.13;4.00;;;7.90;99.90;;;;;;5035510;28;20045;-66
2024/03/30 01:31:44;;;;;;;7.82;3.83;;;7.90;99.90;;;;;;5035511;28;20375;-67
2024/03/30 01:34:10;;;;;;;7.85;3.97;;;7.80;99.90;;;;;;5037540;28;20124;-67
2024/03/30 01:36:35;;;;;;;6.85;4.07;;;7.70;99.90;;;;;;5037709;28;20025;-66
2024/03/30 01:39:00;;;;;;;5.35;3.60;;;7.70;99.90;;;;;;5033640;28;20523;-66
2024/03/30 01:41:26;;;;;;;6.20;3.47;;;7.70;99.90;;;;;;5035936;28;20040;-64
2024/03/30 01:43:52;;;;;;;6.93;3.90;;;7.60;99.90;;;;;;5036846;28;20028;-60
2024/03/30 01:46:17;;;;;;;5.95;3.28;;;7.60;99.90;;;;;;5039529;28;20041;-66
2024/03/30 01:48:43;;;;;;;5.72;3.28;;;7.50;99.90;;;;;;5039366;28;20086;-66
2024/03/30 01:51:08;;;;;;;6.50;3.00;;;7.50;99.90;;;;;;5033443;28;20032;-66
2024/03/30 01:53:34;;;;;;;4.70;3.20;;;7.50;99.90;;;;;;5031211;28;20029;-66
2024/03/30 01:56:00;;;;;;;3.58;2.40;;;7.40;99.90;;;;;;5029111;28;20034;-66
2024/03/30 01:58:27;;;;;;;6.50;2.60;;;7.50;99.90;;;;;;5038206;28;20032;-66
2024/03/30 02:00:54;;;;;;;5.30;2.90;;;7.50;99.90;;;;;;5035633;28;20572;-66
2024/03/30 02:03:23;;;;;;;4.03;2.45;;;7.50;99.90;;;;;;5037962;28;20132;-66
2024/03/30 02:05:49;;;;;;;3.53;1.92;;;7.40;99.90;;;;;;5032994;28;20033;-66
2024/03/30 02:08:16;;;;;;;3.05;2.33;;;7.30;99.90;;;;;;5037523;28;20091;-66
2024/03/30 02:10:42;;;;;;;3.60;2.10;;;7.30;99.90;;;;;;5034557;28;20458;-67
2024/03/30 02:13:07;;;;;;;4.05;2.38;;;7.30;99.90;;;;;;5038899;28;20100;-66
2024/03/30 02:15:33;;;;;;;2.67;1.90;;;7.20;99.90;;;;;;5038352;28;20029;-66
2024/03/30 02:17:59;;;;;;;2.83;2.05;;;7.20;99.90;;;;;;5040940;28;20031;-66
2024/03/30 02:20:25;;;;;;;3.33;2.28;;;7.20;99.90;;;;;;5040412;28;20036;-66
2024/03/30 02:22:55;;;;;;;3.13;2.15;;;7.20;99.90;;;;;;5039861;28;20025;-66
2024/03/30 02:25:21;;;;;;;3.20;2.42;;;7.20;99.90;;;;;;5040107;28;20493;-66
2024/03/30 02:27:48;;;;;;;2.50;2.00;;;7.10;99.90;;;;;;5039692;28;20036;-66
2024/03/30 02:30:30;;;;;;;3.90;2.30;;;7.00;99.90;;;;;;5039431;28;20060;-67
2024/03/30 02:32:57;;;;;;;3.65;2.08;;;7.10;99.90;;;;;;5035916;28;20056;-66
2024/03/30 02:35:23;;;;;;;2.90;2.38;;;7.00;99.90;;;;;;5040352;28;20445;-66
2024/03/30 02:37:49;;;;;;;3.13;2.17;;;6.90;99.90;;;;;;5038813;28;20057;-66
2024/03/30 02:40:15;;;;;;;3.25;1.80;;;6.90;99.90;;;;;;5032645;28;20051;-66
2024/03/30 02:42:41;;;;;;;2.95;2.00;;;6.90;99.90;;;;;;5038500;28;20128;-67
2024/03/30 02:45:08;;;;;;;2.60;1.98;;;6.80;99.90;;;;;;5034088;28;20032;-66
2024/03/30 02:47:33;;;;;;;7.38;2.92;;;6.80;99.90;;;;;;5032039;28;20101;-67
2024/03/30 02:49:59;;;;;;;2.55;2.08;;;6.80;99.90;;;;;;5036261;28;20309;-66
2024/03/30 02:52:24;;;;;;;4.47;2.40;;;6.80;99.90;;;;;;5040713;28;20389;-67
2024/03/30 02:54:49;;;;;;;3.80;2.67;;;6.80;99.90;;;;;;5039981;28;20029;-66
2024/03/30 02:57:15;;;;;;;5.72;2.55;;;6.80;99.90;;;;;;5037592;28;20033;-67
2024/03/30 02:59:42;;;;;;;4.35;2.65;;;6.80;99.90;;;;;;5035100;28;20107;-67
2024/03/30 03:02:07;;;;;;;5.95;2.72;;;6.70;99.90;;;;;;5040249;28;20110;-66
2024/03/30 03:04:33;;;;;;;3.42;2.40;;;6.70;99.90;;;;;;5035974;28;20029;-67
2024/03/30 03:06:58;;;;;;;5.28;2.70;;;6.60;99.90;;;;;;5035827;28;20045;-66
2024/03/30 03:09:24;;;;;;;3.42;2.45;;;6.60;99.90;;;;;;5041511;28;20128;-66
2024/03/30 03:11:49;;;;;;;4.50;2.70;;;6.60;99.90;;;;;;5035979;28;20127;-66
2024/03/30 03:14:15;;;;;;;4.43;2.58;;;6.60;99.90;;;;;;5041598;28;20521;-67
2024/03/30 03:16:40;;;;;;;3.95;2.95;;;6.60;99.90;;;;;;5036079;28;23440;-67
2024/03/30 03:19:06;;;;;;;3.05;2.00;;;6.50;99.90;;;;;;5038016;28;20040;-67
2024/03/30 03:21:31;;;;;;;3.90;2.47;;;6.50;99.90;;;;;;5034575;28;20408;-67
2024/03/30 03:23:57;;;;;;;4.90;2.80;;;6.50;99.90;;;;;;5039024;28;20032;-66
2024/03/30 03:26:22;;;;;;;2.58;2.03;;;6.50;99.90;;;;;;5036867;28;20043;-66
2024/03/30 03:28:47;;;;;;;2.80;2.30;;;6.50;99.90;;;;;;5041408;28;20037;-67
2024/03/30 03:31:13;;;;;;;4.22;2.50;;;6.50;99.90;;;;;;5038252;28;20656;-67
2024/03/30 03:33:38;;;;;;;3.42;2.40;;;6.50;99.90;;;;;;5039207;28;20028;-66
2024/03/30 03:36:04;;;;;;;3.60;2.42;;;6.50;99.90;;;;;;5039658;28;20098;-67
2024/03/30 03:38:30;;;;;;;3.83;2.28;;;6.40;99.90;;;;;;5039610;28;20381;-66
2024/03/30 03:40:55;;;;;;;2.88;1.85;;;6.40;99.90;;;;;;5035780;28;20036;-67
2024/03/30 03:43:21;;;;;;;3.05;2.22;;;6.50;99.90;;;;;;5033257;28;20108;-67
2024/03/30 03:45:48;;;;;;;3.30;2.15;;;6.40;99.90;;;;;;5033651;28;20013;-67
2024/03/30 03:48:13;;;;;;;2.75;2.42;;;6.40;99.90;;;;;;5038424;28;20037;-67
2024/03/30 03:50:40;;;;;;;5.20;2.88;;;6.40;99.90;;;;;;5031561;28;20404;-67
2024/03/30 03:53:06;;;;;;;3.85;2.50;;;6.40;99.90;;;;;;5039215;28;20028;-66
2024/03/30 03:55:35;;;;;;;4.47;2.65;;;6.40;99.90;;;;;;5039008;28;20489;-66
2024/03/30 03:58:01;;;;;;;7.60;2.80;;;6.30;99.90;;;;;;5039315;28;20029;-65
2024/03/30 04:00:27;;;;;;;4.45;2.35;;;6.30;99.90;;;;;;5036163;28;20094;-67
2024/03/30 04:02:52;;;;;;;6.90;2.60;;;6.30;99.90;;;;;;5037620;28;20393;-66
2024/03/30 04:05:18;;;;;;;3.67;2.63;;;6.30;99.90;;;;;;5039076;28;20024;-67
2024/03/30 04:07:43;;;;;;;4.45;2.20;;;6.30;99.90;;;;;;5039231;28;20289;-68
2024/03/30 04:10:11;;;;;;;3.45;2.20;;;6.30;99.90;;;;;;5034850;28;20179;-66
2024/03/30 04:12:38;;;;;;;6.55;2.63;;;6.20;99.90;;;;;;5038885;28;20508;-67
2024/03/30 04:15:03;;;;;;;3.65;2.60;;;6.30;99.90;;;;;;5040395;28;20126;-66
2024/03/30 04:17:32;;;;;;;3.30;2.40;;;6.40;99.90;;;;;;5030022;28;20352;-67
2024/03/30 04:19:58;;;;;;;5.18;2.65;;;6.40;99.90;;;;;;5038831;28;20355;-66
2024/03/30 04:22:23;;;;;;;3.72;2.78;;;6.30;99.90;;;;;;5041382;28;20021;-67
2024/03/30 04:24:49;;;;;;;4.45;2.58;;;6.30;99.90;;;;;;5038717;28;20041;-67
2024/03/30 04:27:15;;;;;;;5.93;2.97;;;6.40;99.90;;;;;;5038938;28;21050;-67
2024/03/30 04:29:40;;;;;;;4.20;2.50;;;6.40;99.90;;;;;;5035887;28;20032;-67
2024/03/30 04:32:06;;;;;;;4.18;2.40;;;6.40;99.90;;;;;;5038182;28;20104;-67
2024/03/30 04:34:31;;;;;;;5.40;2.42;;;6.50;99.90;;;;;;5043925;28;20037;-67
2024/03/30 04:36:56;;;;;;;5.43;2.90;;;6.50;99.90;;;;;;5045036;28;20536;-66
2024/03/30 04:39:22;;;;;;;5.45;2.88;;;6.50;99.90;;;;;;5039672;28;20057;-68
2024/03/30 04:41:48;;;;;;;4.10;2.65;;;6.50;99.90;;;;;;5042807;28;20016;-67
2024/03/30 04:44:13;;;;;;;3.20;2.42;;;6.50;99.90;;;;;;5046703;28;20041;-66
2024/03/30 04:46:39;;;;;;;8.10;2.83;;;6.60;99.90;;;;;;5044169;28;20032;-67
2024/03/30 04:49:04;;;;;;;3.70;2.65;;;6.60;99.90;;;;;;5045178;28;20045;-67
2024/03/30 04:51:30;;;;;;;4.35;2.95;;;6.60;99.90;;;;;;5045679;28;20033;-67
2024/03/30 04:53:56;;;;;;;4.93;2.38;;;6.60;99.90;;;;;;5044806;28;20544;-66
2024/03/30 04:56:24;;;;;;;4.07;2.50;;;6.60;99.90;;;;;;5043877;28;20029;-67
2024/03/30 04:58:49;;;;;;;4.35;2.75;;;6.60;99.90;;;;;;5045070;28;20075;-67
2024/03/30 05:01:16;;;;;;;2.97;2.10;;;6.60;99.90;;;;;;5044605;28;20056;-67
2024/03/30 05:03:41;;;;;;;4.20;2.33;;;6.60;99.90;;;;;;5044009;28;20150;-67
2024/03/30 05:06:07;;;;;;;2.78;2.10;;;6.60;99.90;;;;;;5045041;28;20049;-67
2024/03/30 05:08:33;;;;;;;4.45;2.38;;;6.70;99.90;;;;;;5045065;28;20049;-67
2024/03/30 05:10:58;;;;;;;5.93;2.80;;;6.70;99.90;;;;;;5045146;28;20024;-67
2024/03/30 05:13:24;;;;;;;5.03;2.75;;;6.80;99.90;;;;;;5043244;28;20029;-67
2024/03/30 05:15:49;;;;;;;4.53;2.45;;;7.00;99.90;;;;;;5046674;28;20404;-67
2024/03/30 05:18:16;;;;;;;3.55;2.42;;;7.00;99.90;;;;;;5045172;28;20025;-68
2024/03/30 05:20:49;;;;;;;3.75;2.78;;;7.20;99.90;;;;;;5045271;28;20041;-69
2024/03/30 05:23:22;;;;;;;7.25;2.88;;;7.30;99.90;;;;;;5044622;28;20021;-68
2024/03/30 05:25:49;;;;;;;5.30;3.90;;;7.40;99.90;;;;;;5042226;28;20477;-67
2024/03/30 05:28:18;;;;;;;5.00;2.88;;;7.50;99.90;;;;;;5045115;28;20556;-67
2024/03/30 05:30:44;;;;;;;4.90;2.67;;;7.70;99.90;;;;;;5044886;28;20449;-67
2024/03/30 05:33:11;;;;;;;4.47;2.83;;;7.80;99.90;;;;;;5043478;28;20045;-67
2024/03/30 05:35:37;;;;;;;4.65;2.97;;;8.00;99.90;;;;;;5043294;28;20071;-67
2024/03/30 05:38:03;;;;;;;3.47;2.55;;;8.10;99.90;;;;;;5042520;28;20025;-67
2024/03/30 05:40:34;;;;;;;5.40;3.17;;;8.30;99.90;;;;;;5041746;28;20040;-67
2024/03/30 05:43:00;;;;;;;4.93;3.10;;;8.40;99.90;;;;;;5045552;28;20508;-67
2024/03/30 05:45:26;;;;;;;4.53;2.90;;;8.50;99.90;;;;;;5039181;28;20029;-67
2024/03/30 05:47:52;;;;;;;5.57;3.30;;;8.60;99.90;;;;;;5040551;28;20032;-67
2024/03/30 05:50:18;;;;;;;6.53;3.55;;;8.70;99.90;;;;;;5041923;28;20021;-67
2024/03/30 05:52:44;;;;;;;6.18;3.08;;;8.80;99.90;;;;;;5037635;28;20090;-67
2024/03/30 05:55:09;;;;;;;6.25;3.47;;;8.90;99.90;;;;;;5040594;28;20033;-67
2024/03/30 05:57:35;;;;;;;4.97;3.15;;;9.10;99.90;;;;;;5057019;28;20035;-67
2024/03/30 06:00:00;;;;;;;6.80;2.90;;;9.30;99.90;;;;;;5033096;28;20022;-67
2024/03/30 06:02:26;;;;;;;5.80;3.10;;;9.50;99.90;;;;;;5041684;28;20254;-67
2024/03/30 06:04:52;;;;;;;6.57;3.15;;;9.70;99.90;;;;;;5039446;28;20029;-67
2024/03/30 06:07:18;;;;;;;4.75;2.90;;;10.00;99.90;;;;;;5041380;28;20454;-67
2024/03/30 06:09:43;;;;;;;6.10;3.05;;;10.30;99.90;;;;;;5030950;28;20049;-67
2024/03/30 06:12:09;;;;;;;7.72;3.58;;;10.50;99.90;;;;;;5038632;28;20025;-67
2024/03/30 06:14:34;;;;;;;5.30;3.08;;;10.50;99.90;;;;;;5042622;28;20123;-66
2024/03/30 06:17:00;;;;;;;7.05;3.20;;;10.50;99.90;;;;;;5041153;28;20100;-66
2024/03/30 06:19:25;;;;;;;7.95;3.72;;;10.40;99.90;;;;;;5032969;28;21034;-66
2024/03/30 06:21:52;;;;;;;6.63;3.40;;;10.40;99.90;;;;;;5040125;28;20029;-66
2024/03/30 06:24:17;;;;;;;7.10;3.47;;;10.40;99.90;;;;;;5037769;28;20025;-67
2024/03/30 06:26:43;;;;;;;5.53;3.70;;;10.50;99.90;;;;;;5040752;28;20111;-66
2024/03/30 06:29:09;;;;;;;7.50;4.18;;;10.50;99.90;;;;;;5042796;28;20098;-67
2024/03/30 06:31:35;;;;;;;6.20;3.40;;;10.60;99.90;;;;;;5036818;28;20017;-67
2024/03/30 06:34:04;;;;;;;5.78;3.30;;;10.60;99.90;;;;;;5039976;28;20064;-66
2024/03/30 06:36:29;;;;;;;6.93;3.60;;;10.70;99.90;;;;;;5040585;28;20035;-66
2024/03/30 06:38:55;;;;;;;10.60;3.53;;;10.80;99.90;;;;;;5040597;28;20041;-67
2024/03/30 06:44:04;;;;;;;6.57;3.58;;;11.00;99.90;;;;;;5036313;28;20044;-67
2024/03/30 06:46:30;;;;;;;10.02;4.00;;;11.10;99.90;;;;;;5033831;28;20742;-66
2024/03/30 06:48:55;;;;;;;5.72;3.67;;;11.20;99.70;;;;;;5035840;28;20048;-65
2024/03/30 06:51:21;;;;;;;7.60;4.00;;;11.30;99.90;;;;;;5040674;28;20039;-67
2024/03/30 06:53:46;;;;;;;8.52;4.18;;;11.50;99.40;;;;;;5040168;28;20017;-66
2024/03/30 06:56:12;;;;;;;7.72;3.67;;;11.70;99.30;;;;;;5039668;28;20028;-66
2024/03/30 06:58:37;;;;;;;8.07;4.07;;;11.90;98.10;;;;;;5042325;28;20375;-65
2024/03/30 07:01:04;;;;;;;7.13;4.03;;;12.00;97.90;;;;;;5035745;28;20025;-66
2024/03/30 07:03:30;;;;;;;6.85;4.45;;;12.00;97.30;;;;;;5033263;28;20009;-66
2024/03/30 07:05:55;;;;;;;9.20;4.13;;;12.10;96.50;;;;;;5035667;28;20395;-66
2024/03/30 07:08:20;;;;;;;6.80;3.90;;;12.10;95.30;;;;;;5034202;28;20525;-68
2024/03/30 07:10:46;;;;;;;7.00;3.80;;;12.20;95.40;;;;;;5039130;28;20036;-67
2024/03/30 07:13:11;;;;;;;9.63;4.22;;;12.20;95.30;;;;;;5035881;28;20071;-64
2024/03/30 07:15:37;;;;;;;8.25;4.32;;;12.30;95.10;;;;;;5038846;28;20037;-67
2024/03/30 07:18:03;;;;;;;5.82;3.47;;;12.40;94.80;;;;;;5038776;28;20113;-66
2024/03/30 07:20:29;;;;;;;7.72;4.20;;;12.50;94.60;;;;;;5036063;28;20630;-66
2024/03/30 07:22:55;;;;;;;7.78;4.22;;;12.70;94.20;;;;;;5035772;28;20033;-66
2024/03/30 07:25:20;;;;;;;8.25;4.47;;;12.90;94.10;;;;;;5039488;28;20020;-66
2024/03/30 07:27:45;;;;;;;11.20;4.68;;;13.00;92.60;;;;;;5040413;28;20068;-66
2024/03/30 07:30:11;;;;;;;6.80;4.10;;;13.20;92.40;;;;;;5034087;28;20021;-66
2024/03/30 07:32:37;;;;;;;12.95;4.65;;;13.40;92.00;;;;;;5039168;28;20017;-66
2024/03/30 07:35:03;;;;;;;8.27;4.95;;;13.70;91.70;;;;;;5034421;28;20436;-66
2024/03/30 07:37:28;;;;;;;11.32;4.45;;;14.00;90.60;;;;;;5038344;28;20146;-66
2024/03/30 07:39:54;;;;;;;11.02;4.60;;;14.40;90.10;;;;;;5030352;28;20569;-66
2024/03/30 07:42:19;;;;;;;11.10;4.88;;;14.80;88.20;;;;;;5034862;28;20029;-66
2024/03/30 07:44:44;;;;;;;9.00;4.53;;;15.20;85.40;;;;;;5036549;28;20509;-65
2024/03/30 07:47:10;;;;;;;10.55;4.72;;;15.60;83.00;;;;;;5037893;28;20604;-65
2024/03/30 07:49:35;;;;;;;10.23;4.82;;;16.00;80.80;;;;;;5033210;28;20485;-64
2024/03/30 07:52:01;;;;;;;11.02;5.10;;;16.20;77.40;;;;;;5038238;28;20037;-64
2024/03/30 07:54:27;;;;;;;8.05;4.00;;;16.40;76.70;;;;;;5035257;28;20044;-63
2024/03/30 07:57:00;;;;;;;10.50;4.95;;;16.90;77.00;;;;;;5041316;28;20025;-64
2024/03/30 07:59:27;;;;;;;9.25;4.60;;;17.30;74.60;;;;;;5048954;28;20443;-64
2024/03/30 08:01:52;;;;;;;7.13;3.50;;;17.40;73.50;;;;;;5038292;28;20111;-65
2024/03/30 08:04:20;;;;;;;7.85;4.55;;;17.50;71.00;;;;;;5053176;28;20171;-64
2024/03/30 08:06:47;;;;;;;10.48;4.88;;;17.60;71.20;;;;;;5034118;28;20757;-64
2024/03/30 08:09:13;;;;;;;9.18;4.50;;;17.70;70.50;;;;;;5034482;28;20374;-64
2024/03/30 08:11:39;;;;;;;9.38;5.13;;;17.80;68.30;;;;;;5034463;28;20102;-64
2024/03/30 08:14:05;;;;;;;7.32;4.13;;;18.10;66.90;;;;;;5038597;28;20499;-64
2024/03/30 08:16:32;;;;;;;9.00;4.50;;;18.20;65.50;;;;;;5028151;28;20029;-64
2024/03/30 08:18:58;;;;;;;12.85;4.68;;;18.30;65.70;;;;;;5040402;28;20124;-64
2024/03/30 08:21:24;;;;;;;8.30;4.55;;;18.40;64.20;;;;;;5054220;28;20485;-65
2024/03/30 08:23:50;;;;;;;11.13;4.85;;;18.40;62.70;;;;;;5035198;28;20047;-64
2024/03/30 08:26:16;;;;;;;10.00;4.40;;;18.50;62.40;;;;;;5036488;28;20033;-63
2024/03/30 08:28:45;;;;;;;10.32;4.43;;;18.50;62.10;;;;;;5035041;28;20443;-64
2024/03/30 08:31:10;;;;;;;9.15;4.25;;;18.70;62.50;;;;;;5037794;28;20029;-64
2024/03/30 08:33:36;;;;;;;9.10;4.43;;;18.70;61.10;;;;;;5040696;28;20033;-64
2024/03/30 08:36:01;;;;;;;12.52;4.78;;;18.70;60.90;;;;;;5036499;28;20029;-63
2024/03/30 08:38:27;;;;;;;8.93;4.15;;;18.90;61.30;;;;;;5035864;28;20035;-64
2024/03/30 08:40:52;;;;;;;10.32;4.93;;;18.90;60.30;;;;;;5025916;28;20025;-64
2024/03/30 08:43:18;;;;;;;8.32;4.07;;;19.00;60.00;;;;;;5038335;28;20096;-64
2024/03/30 08:45:43;;;;;;;11.35;4.85;;;19.20;59.90;;;;;;5038314;28;20541;-64
2024/03/30 08:48:13;;;;;;;10.10;4.40;;;19.30;58.60;;;;;;5037559;28;20082;-64
2024/03/30 08:50:39;;;;;;;16.98;4.50;;;19.40;57.60;;;;;;5039675;28;20366;-64
2024/03/30 08:53:07;;;;;;;14.20;4.70;;;19.50;57.20;;;;;;5038715;28;20079;-64
2024/03/30 08:55:33;;;;;;;13.82;4.82;;;19.50;56.30;;;;;;5038480;28;20029;-64
2024/03/30 08:57:58;;;;;;;12.98;4.35;;;19.60;56.50;;;;;;5038474;28;20040;-62
2024/03/30 09:00:24;;;;;;;11.05;4.72;;;19.60;55.90;;;;;;5034230;28;20025;-63
2024/03/30 09:02:51;;;;;;;14.48;5.10;;;19.80;56.40;;;;;;5038480;28;20055;-64
2024/03/30 09:05:17;;;;;;;12.60;5.05;;;20.10;55.40;;;;;;5037459;28;20083;-64
2024/03/30 09:07:42;;;;;;;9.95;4.28;;;20.10;54.50;;;;;;5033043;28;20072;-64
2024/03/30 09:10:08;;;;;;;12.52;4.30;;;20.30;55.60;;;;;;5034469;28;20045;-63
2024/03/30 09:12:33;;;;;;;15.15;4.03;;;20.50;55.30;;;;;;5038619;28;20024;-64
2024/03/30 09:14:58;;;;;;;17.77;5.32;;;20.90;55.30;;;;;;5034007;28;20093;-63
2024/03/30 09:17:24;;;;;;;15.07;5.28;;;21.00;52.50;;;;;;5034240;28;20021;-63
2024/03/30 09:19:49;;;;;;;13.73;5.20;;;20.90;50.90;;;;;;5039662;28;20037;-63
2024/03/30 09:22:15;;;;;;;17.80;5.22;;;21.00;51.90;;;;;;5040341;28;20098;-63
2024/03/30 09:24:43;;;;;;;14.57;5.30;;;21.10;51.50;;;;;;5042682;28;20025;-63
2024/03/30 09:27:08;;;;;;;11.38;4.32;;;21.10;50.80;;;;;;5038078;28;20142;-63
2024/03/30 09:29:34;;;;;;;15.93;5.45;;;21.30;51.20;;;;;;5032272;28;20107;-63
2024/03/30 09:31:59;;;;;;;16.33;5.88;;;21.50;49.80;;;;;;5034182;28;20107;-63
2024/03/30 09:34:25;;;;;;;15.98;5.00;;;21.60;48.90;;;;;;5048889;28;20112;-63
2024/03/30 09:36:50;;;;;;;20.38;6.35;;;21.60;48.20;;;;;;5037254;28;20033;-63
2024/03/30 09:39:16;;;;;;;25.15;6.63;;;21.60;47.20;;;;;;5034848;28;20033;-61
2024/03/30 09:41:55;;;;;;;25.63;6.75;;;21.60;46.70;;;;;;5040941;28;20025;-63
2024/03/30 09:44:20;;;;;;;27.17;7.10;;;21.70;46.50;;;;;;5040176;28;20032;-63
2024/03/30 09:46:48;;;;;;;18.73;5.70;;;21.60;46.00;;;;;;5036898;28;20223;-63
2024/03/30 09:49:15;;;;;;;28.58;6.97;;;21.70;45.90;;;;;;5037309;28;20029;-63
2024/03/30 09:51:42;;;;;;;30.13;7.25;;;21.90;44.70;;;;;;5033284;28;20033;-63
2024/03/30 09:54:08;;;;;;;26.45;7.45;;;21.90;43.90;;;;;;5033223;28;20400;-63
2024/03/30 09:56:35;;;;;;;22.38;7.47;;;21.90;43.80;;;;;;5051393;28;20116;-63
2024/03/30 09:59:05;;;;;;;19.02;6.90;;;21.90;43.00;;;;;;5037236;28;20543;-63
2024/03/30 10:01:30;;;;;;;29.10;7.30;;;22.00;43.10;;;;;;5041354;28;20385;-62
2024/03/30 10:03:56;;;;;;;34.22;7.45;;;22.10;43.00;;;;;;5042508;28;20037;-63
2024/03/30 10:06:28;;;;;;;25.70;7.28;;;22.10;41.00;;;;;;5038687;28;20033;-63
2024/03/30 10:08:58;;;;;;;28.95;7.53;;;22.00;41.50;;;;;;5038546;28;20049;-64
2024/03/30 10:11:29;;;;;;;22.27;6.25;;;21.90;42.20;;;;;;5037834;28;20021;-64
2024/03/30 10:14:04;;;;;;;28.88;7.22;;;22.00;42.10;;;;;;5036231;28;20037;-63
2024/03/30 10:16:30;;;;;;;34.65;7.15;;;21.80;39.70;;;;;;5034713;28;20040;-64
2024/03/30 10:18:57;;;;;;;24.55;6.88;;;21.70;40.80;;;;;;5039148;28;20508;-64
2024/03/30 10:21:23;;;;;;;31.83;7.50;;;21.70;41.00;;;;;;5037451;28;20043;-64
2024/03/30 10:23:50;;;;;;;41.90;8.38;;;21.70;39.70;;;;;;5037169;28;20021;-64
2024/03/30 10:26:18;;;;;;;49.60;8.63;;;21.70;39.80;;;;;;5037531;28;20037;-64
2024/03/30 10:28:44;;;;;;;37.13;7.78;;;21.70;39.50;;;;;;5049819;28;20152;-63
2024/03/30 10:31:11;;;;;;;33.95;8.68;;;21.60;39.10;;;;;;5035676;28;20100;-63
2024/03/30 10:33:36;;;;;;;31.92;7.72;;;21.60;39.30;;;;;;5031670;28;20032;-64
2024/03/30 10:36:02;;;;;;;26.88;6.93;;;21.70;39.40;;;;;;5035423;28;20397;-64
2024/03/30 10:38:28;;;;;;;20.67;6.45;;;21.70;39.50;;;;;;5032781;28;20029;-65
2024/03/30 10:40:57;;;;;;;26.50;6.63;;;21.70;39.20;;;;;;5031723;28;20123;-64
2024/03/30 10:43:23;;;;;;;36.80;8.52;;;21.70;39.40;;;;;;5035034;28;20032;-65
2024/03/30 10:45:49;;;;;;;41.03;8.32;;;21.70;37.90;;;;;;5034273;28;20025;-64
2024/03/30 10:48:15;;;;;;;42.55;8.95;;;21.80;38.00;;;;;;5051191;28;20140;-64
2024/03/30 10:50:41;;;;;;;36.63;8.43;;;21.80;37.10;;;;;;5039562;28;20082;-62
2024/03/30 10:53:06;;;;;;;53.80;8.68;;;21.70;36.30;;;;;;5035365;28;20399;-63
2024/03/30 10:55:37;;;;;;;39.83;9.45;;;21.60;35.40;;;;;;5040554;28;20484;-64
2024/03/30 10:58:03;;;;;;;26.20;7.93;;;21.60;35.90;;;;;;5039863;28;20053;-63
2024/03/30 11:00:29;;;;;;;38.88;8.85;;;21.60;36.20;;;;;;5036105;28;20539;-64
2024/03/30 11:02:57;;;;;;;42.60;8.50;;;21.70;36.50;;;;;;5037079;28;20050;-64
2024/03/30 11:05:27;;;;;;;37.15;7.38;;;21.70;36.50;;;;;;5034100;28;20025;-64
2024/03/30 11:07:54;;;;;;;32.90;6.47;;;21.80;36.80;;;;;;5038652;28;20091;-64
2024/03/30 11:10:21;;;;;;;39.97;7.70;;;22.00;36.80;;;;;;5037749;28;20041;-64
2024/03/30 11:12:46;;;;;;;38.20;7.63;;;22.00;36.40;;;;;;5036171;28;20025;-64
2024/03/30 11:15:12;;;;;;;52.10;8.85;;;22.20;36.40;;;;;;5037977;28;20082;-61
2024/03/30 11:17:58;;;;;;;39.28;8.18;;;22.20;35.90;;;;;;5040103;28;20037;-63
2024/03/30 11:20:31;;;;;;;38.17;8.35;;;22.10;35.50;;;;;;5033948;28;20022;-62
2024/03/30 11:23:06;;;;;;;50.03;9.85;;;22.10;35.90;;;;;;5028430;28;20037;-64
2024/03/30 11:25:34;;;;;;;39.05;8.85;;;22.00;35.60;;;;;;5031627;28;20029;-63
2024/03/30 11:28:06;;;;;;;50.53;8.85;;;22.00;35.50;;;;;;5047251;28;20041;-63
2024/03/30 11:30:51;;;;;;;31.80;8.02;;;22.00;35.40;;;;;;5032365;28;20052;-63
2024/03/30 11:33:29;;;;;;;42.17;9.27;;;21.90;35.40;;;;;;5029990;28;20029;-62
2024/03/30 11:36:21;;;;;;;35.22;8.82;;;21.90;35.70;;;;;;5035051;28;20544;-63
2024/03/30 11:38:51;;;;;;;36.50;7.32;;;21.80;36.00;;;;;;5037285;28;20033;-63
2024/03/30 11:41:17;;;;;;;36.00;8.13;;;21.80;36.20;;;;;;5033018;28;20477;-65
2024/03/30 11:43:58;;;;;;;37.67;6.70;;;21.70;36.30;;;;;;5032683;28;20098;-63
2024/03/30 11:46:24;;;;;;;47.35;7.97;;;21.80;36.40;;;;;;5028154;28;20040;-63
2024/03/30 11:48:51;;;;;;;45.38;8.45;;;21.80;36.40;;;;;;5035333;28;20045;-63
2024/03/30 11:51:17;;;;;;;33.38;7.47;;;21.80;36.40;;;;;;5030047;28;20122;-63
2024/03/30 11:53:43;;;;;;;48.35;8.15;;;21.80;36.30;;;;;;5029856;28;20064;-63
2024/03/30 11:56:10;;;;;;;48.58;7.47;;;21.80;36.10;;;;;;5035363;28;20037;-63
2024/03/30 11:58:35;;;;;;;43.58;8.98;;;21.80;36.20;;;;;;5035579;28;20012;-63
2024/03/30 12:01:02;;;;;;;39.33;8.20;;;21.90;36.30;;;;;;5034542;28;20532;-64
2024/03/30 12:03:28;;;;;;;35.30;8.77;;;21.90;35.90;;;;;;5033581;28;20032;-63
2024/03/30 12:05:56;;;;;;;59.80;10.25;;;21.90;35.60;;;;;;5027556;28;20026;-63
2024/03/30 12:08:29;;;;;;;46.55;8.73;;;21.90;35.00;;;;;;5033135;28;20033;-63
2024/03/30 12:10:56;;;;;;;49.45;8.57;;;21.90;35.00;;;;;;5029888;28;20029;-64
2024/03/30 12:13:24;;;;;;;41.83;7.70;;;22.00;35.20;;;;;;5028883;28;20028;-64
2024/03/30 12:15:50;;;;;;;49.10;9.43;;;22.10;35.40;;;;;;5045017;28;20029;-63
2024/03/30 12:18:16;;;;;;;51.28;10.07;;;22.20;34.90;;;;;;5030820;28;20036;-63
2024/03/30 12:20:47;;;;;;;48.13;10.23;;;22.30;33.90;;;;;;5035899;28;20033;-63
2024/03/30 12:23:14;;;;;;;42.13;9.43;;;22.40;32.40;;;;;;5032848;28;20066;-63
2024/03/30 12:25:41;;;;;;;70.15;12.07;;;22.30;31.70;;;;;;5033556;28;20028;-63
2024/03/30 12:28:07;;;;;;;68.70;12.32;;;22.40;30.50;;;;;;5029173;28;20028;-62
2024/03/30 12:30:40;;;;;;;57.15;9.80;;;22.40;29.60;;;;;;5035050;28;20021;-62
2024/03/30 12:33:06;;;;;;;67.32;11.50;;;22.50;28.40;;;;;;5032588;28;20025;-63
2024/03/30 12:35:32;;;;;;;78.18;12.13;;;22.60;27.80;;;;;;5035308;28;20120;-63
2024/03/30 12:37:59;;;;;;;63.78;12.05;;;22.60;26.90;;;;;;5028751;28;20024;-63
2024/03/30 12:40:34;;;;;;;59.88;11.70;;;22.60;27.00;;;;;;5043804;28;20678;-64
2024/03/30 12:43:02;;;;;;;52.53;9.20;;;22.70;27.30;;;;;;5033551;28;20094;-63
2024/03/30 12:45:28;;;;;;;51.35;9.30;;;22.70;27.00;;;;;;5036964;28;20033;-64
2024/03/30 12:47:56;;;;;;;43.72;8.20;;;22.80;26.40;;;;;;5031230;28;20507;-64